sensor_id;sensor_type;location;lat;lon;timestamp;temperature;humidity
40053;DHT22;25758;48.200;16.338;2022-10-17T00:00:42;14.80;99.90
40053;DHT22;25758;48.200;16.338;2022-10-17T00:03:08;14.80;99.90
40053;DHT22;25758;48.200;16.338;2022-10-17T00:05:39;14.80;99.90
40053;DHT22;25758;48.200;16.338;2022-10-17T00:08:05;14.80;99.90
40053;DHT22;25758;48.200;16.338;2022-10-17T00:10:31;14.80;99.90
40053;DHT22;25758;48.200;16.338;2022-10-17T00:12:56;14.80;99.90
40053;DHT22;25758;48.200;16.338;2022-10-17T00:15:22;14.80;99.90
40053;DHT22;25758;48.200;16.338;2022-10-17T00:17:48;14.80;99.90
40053;DHT22;25758;48.200;16.338;2022-10-17T00:20:14;14.70;99.90
40053;DHT22;25758;48.200;16.338;2022-10-17T00:22:40;14.70;99.90
40053;DHT22;25758;48.200;16.338;2022-10-17T00:25:06;14.70;99.90
40053;DHT22;25758;48.200;16.338;2022-10-17T00:27:37;14.70;99.90
40053;DHT22;25758;48.200;16.338;2022-10-17T00:30:04;14.70;99.90
40053;DHT22;25758;48.200;16.338;2022-10-17T00:32:29;14.70;99.90
40053;DHT22;25758;48.200;16.338;2022-10-17T00:34:56;14.70;99.90
40053;DHT22;25758;48.200;16.338;2022-10-17T00:37:22;14.70;99.90
40053;DHT22;25758;48.200;16.338;2022-10-17T00:39:48;14.70;99.90
40053;DHT22;25758;48.200;16.338;2022-10-17T00:42:13;14.70;99.90
40053;DHT22;25758;48.200;16.338;2022-10-17T00:47:08;14.60;99.90
40053;DHT22;25758;48.200;16.338;2022-10-17T00:49:36;14.60;99.90
40053;DHT22;25758;48.200;16.338;2022-10-17T00:52:06;14.60;99.90
40053;DHT22;25758;48.200;16.338;2022-10-17T00:54:36;14.50;99.90
40053;DHT22;25758;48.200;16.338;2022-10-17T00:57:03;14.50;99.90
40053;DHT22;25758;48.200;16.338;2022-10-17T00:59:29;14.50;99.90
40053;DHT22;25758;48.200;16.338;2022-10-17T01:02:04;14.50;99.90
40053;DHT22;25758;48.200;16.338;2022-10-17T01:04:30;14.50;99.90
40053;DHT22;25758;48.200;16.338;2022-10-17T01:06:55;14.50;99.90
40053;DHT22;25758;48.200;16.338;2022-10-17T01:09:21;14.40;99.90
40053;DHT22;25758;48.200;16.338;2022-10-17T01:18:39;14.40;99.90
40053;DHT22;25758;48.200;16.338;2022-10-17T01:31:22;14.30;99.90
40053;DHT22;25758;48.200;16.338;2022-10-17T01:34:08;14.30;99.90
40053;DHT22;25758;48.200;16.338;2022-10-17T01:37:05;14.30;99.90
40053;DHT22;25758;48.200;16.338;2022-10-17T01:39:44;14.30;99.90
40053;DHT22;25758;48.200;16.338;2022-10-17T01:47:32;14.20;99.90
40053;DHT22;25758;48.200;16.338;2022-10-17T01:50:06;14.20;99.90
40053;DHT22;25758;48.200;16.338;2022-10-17T01:52:42;14.20;99.90
40053;DHT22;25758;48.200;16.338;2022-10-17T01:55:14;14.20;99.90
40053;DHT22;25758;48.200;16.338;2022-10-17T01:57:47;14.20;99.90
40053;DHT22;25758;48.200;16.338;2022-10-17T02:00:17;14.20;99.90
40053;DHT22;25758;48.200;16.338;2022-10-17T02:02:45;14.20;99.90
40053;DHT22;25758;48.200;16.338;2022-10-17T02:05:12;14.20;99.90
40053;DHT22;25758;48.200;16.338;2022-10-17T02:07:40;14.20;99.90
40053;DHT22;25758;48.200;16.338;2022-10-17T02:10:11;14.20;99.90
40053;DHT22;25758;48.200;16.338;2022-10-17T02:12:55;14.20;99.90
40053;DHT22;25758;48.200;16.338;2022-10-17T02:31:14;14.10;99.90
40053;DHT22;25758;48.200;16.338;2022-10-17T02:33:54;14.10;99.90
40053;DHT22;25758;48.200;16.338;2022-10-17T02:36:25;14.00;99.90
40053;DHT22;25758;48.200;16.338;2022-10-17T02:38:53;14.00;99.90
40053;DHT22;25758;48.200;16.338;2022-10-17T02:41:21;14.00;99.90
40053;DHT22;25758;48.200;16.338;2022-10-17T02:43:48;14.00;99.90
40053;DHT22;25758;48.200;16.338;2022-10-17T02:46:18;14.00;99.90
40053;DHT22;25758;48.200;16.338;2022-10-17T02:48:53;13.90;99.90
40053;DHT22;25758;48.200;16.338;2022-10-17T02:56:33;14.00;99.90
40053;DHT22;25758;48.200;16.338;2022-10-17T02:59:02;13.90;99.90
40053;DHT22;25758;48.200;16.338;2022-10-17T03:01:29;13.90;99.90
40053;DHT22;25758;48.200;16.338;2022-10-17T03:04:10;13.90;99.90
40053;DHT22;25758;48.200;16.338;2022-10-17T03:06:36;15.20;99.90
40053;DHT22;25758;48.200;16.338;2022-10-17T03:09:02;13.90;99.90
40053;DHT22;25758;48.200;16.338;2022-10-17T03:11:28;13.90;99.90
40053;DHT22;25758;48.200;16.338;2022-10-17T03:13:53;14.00;99.90
40053;DHT22;25758;48.200;16.338;2022-10-17T03:16:19;13.90;99.90
40053;DHT22;25758;48.200;16.338;2022-10-17T03:18:45;13.90;99.90
40053;DHT22;25758;48.200;16.338;2022-10-17T03:21:10;13.90;99.90
40053;DHT22;25758;48.200;16.338;2022-10-17T03:23:36;13.90;99.90
40053;DHT22;25758;48.200;16.338;2022-10-17T03:26:03;13.90;99.90
40053;DHT22;25758;48.200;16.338;2022-10-17T03:28:29;13.90;99.90
40053;DHT22;25758;48.200;16.338;2022-10-17T03:30:54;13.90;99.90
40053;DHT22;25758;48.200;16.338;2022-10-17T03:33:20;13.90;99.90
40053;DHT22;25758;48.200;16.338;2022-10-17T03:35:46;13.90;99.90
40053;DHT22;25758;48.200;16.338;2022-10-17T03:38:11;13.90;99.90
40053;DHT22;25758;48.200;16.338;2022-10-17T03:40:37;13.90;99.90
40053;DHT22;25758;48.200;16.338;2022-10-17T03:43:03;13.90;99.90
40053;DHT22;25758;48.200;16.338;2022-10-17T03:45:28;13.90;99.90
40053;DHT22;25758;48.200;16.338;2022-10-17T03:47:54;13.90;99.90
40053;DHT22;25758;48.200;16.338;2022-10-17T03:50:19;13.90;99.90
40053;DHT22;25758;48.200;16.338;2022-10-17T03:52:46;13.90;99.90
40053;DHT22;25758;48.200;16.338;2022-10-17T03:55:13;13.90;99.90
40053;DHT22;25758;48.200;16.338;2022-10-17T03:57:38;13.90;99.90
40053;DHT22;25758;48.200;16.338;2022-10-17T04:00:04;13.90;99.90
40053;DHT22;25758;48.200;16.338;2022-10-17T04:02:30;13.90;99.90
40053;DHT22;25758;48.200;16.338;2022-10-17T04:04:56;13.90;99.90
40053;DHT22;25758;48.200;16.338;2022-10-17T04:07:21;13.90;99.90
40053;DHT22;25758;48.200;16.338;2022-10-17T04:09:47;13.90;99.90
40053;DHT22;25758;48.200;16.338;2022-10-17T04:12:13;13.80;99.90
40053;DHT22;25758;48.200;16.338;2022-10-17T04:14:38;13.80;99.90
40053;DHT22;25758;48.200;16.338;2022-10-17T04:17:04;13.80;99.90
40053;DHT22;25758;48.200;16.338;2022-10-17T04:19:30;13.80;99.90
40053;DHT22;25758;48.200;16.338;2022-10-17T04:21:55;13.80;99.90
40053;DHT22;25758;48.200;16.338;2022-10-17T04:24:21;13.70;99.90
40053;DHT22;25758;48.200;16.338;2022-10-17T04:26:48;13.80;99.90
40053;DHT22;25758;48.200;16.338;2022-10-17T04:29:15;13.80;99.90
40053;DHT22;25758;48.200;16.338;2022-10-17T04:31:41;13.70;99.90
40053;DHT22;25758;48.200;16.338;2022-10-17T04:34:06;13.70;99.90
40053;DHT22;25758;48.200;16.338;2022-10-17T04:36:32;13.70;99.90
40053;DHT22;25758;48.200;16.338;2022-10-17T04:38:59;13.70;99.90
40053;DHT22;25758;48.200;16.338;2022-10-17T04:41:27;13.70;99.90
40053;DHT22;25758;48.200;16.338;2022-10-17T04:43:52;13.70;99.90
40053;DHT22;25758;48.200;16.338;2022-10-17T04:46:18;13.60;99.90
40053;DHT22;25758;48.200;16.338;2022-10-17T04:48:44;13.70;99.90
40053;DHT22;25758;48.200;16.338;2022-10-17T04:51:14;13.60;99.90
40053;DHT22;25758;48.200;16.338;2022-10-17T04:53:41;13.60;99.90
40053;DHT22;25758;48.200;16.338;2022-10-17T04:56:16;13.70;99.90
40053;DHT22;25758;48.200;16.338;2022-10-17T04:58:42;13.60;99.90
40053;DHT22;25758;48.200;16.338;2022-10-17T05:01:11;13.60;99.90
40053;DHT22;25758;48.200;16.338;2022-10-17T05:03:37;13.60;99.90
40053;DHT22;25758;48.200;16.338;2022-10-17T05:06:04;13.60;99.90
40053;DHT22;25758;48.200;16.338;2022-10-17T05:08:30;13.60;99.90
40053;DHT22;25758;48.200;16.338;2022-10-17T05:10:56;13.60;99.90
40053;DHT22;25758;48.200;16.338;2022-10-17T05:13:22;13.60;99.90
40053;DHT22;25758;48.200;16.338;2022-10-17T05:15:47;13.60;99.90
40053;DHT22;25758;48.200;16.338;2022-10-17T05:18:13;13.50;99.90
40053;DHT22;25758;48.200;16.338;2022-10-17T05:20:38;13.50;99.90
40053;DHT22;25758;48.200;16.338;2022-10-17T05:23:04;13.50;99.90
40053;DHT22;25758;48.200;16.338;2022-10-17T05:25:30;13.50;99.90
40053;DHT22;25758;48.200;16.338;2022-10-17T05:27:55;13.50;99.90
40053;DHT22;25758;48.200;16.338;2022-10-17T05:30:21;13.50;99.90
40053;DHT22;25758;48.200;16.338;2022-10-17T05:32:47;13.50;99.90
40053;DHT22;25758;48.200;16.338;2022-10-17T05:35:12;13.50;99.90
40053;DHT22;25758;48.200;16.338;2022-10-17T05:37:38;13.50;99.90
40053;DHT22;25758;48.200;16.338;2022-10-17T05:40:04;13.50;99.90
40053;DHT22;25758;48.200;16.338;2022-10-17T05:42:30;13.50;99.90
40053;DHT22;25758;48.200;16.338;2022-10-17T05:44:56;13.50;99.90
40053;DHT22;25758;48.200;16.338;2022-10-17T05:47:21;13.50;99.90
40053;DHT22;25758;48.200;16.338;2022-10-17T05:49:47;13.50;99.90
40053;DHT22;25758;48.200;16.338;2022-10-17T05:52:12;13.50;99.90
40053;DHT22;25758;48.200;16.338;2022-10-17T05:54:38;13.50;99.90
40053;DHT22;25758;48.200;16.338;2022-10-17T05:57:04;13.50;99.90
40053;DHT22;25758;48.200;16.338;2022-10-17T05:59:29;13.50;99.90
40053;DHT22;25758;48.200;16.338;2022-10-17T06:01:55;13.60;99.90
40053;DHT22;25758;48.200;16.338;2022-10-17T06:04:21;13.60;99.90
40053;DHT22;25758;48.200;16.338;2022-10-17T06:06:46;13.60;99.90
40053;DHT22;25758;48.200;16.338;2022-10-17T06:09:12;13.50;99.90
40053;DHT22;25758;48.200;16.338;2022-10-17T06:11:38;13.60;99.90
40053;DHT22;25758;48.200;16.338;2022-10-17T06:14:03;13.60;99.90
40053;DHT22;25758;48.200;16.338;2022-10-17T06:16:29;13.60;99.90
40053;DHT22;25758;48.200;16.338;2022-10-17T06:18:55;13.60;99.90
40053;DHT22;25758;48.200;16.338;2022-10-17T06:21:23;13.60;99.90
40053;DHT22;25758;48.200;16.338;2022-10-17T06:23:49;13.60;99.90
40053;DHT22;25758;48.200;16.338;2022-10-17T06:26:15;13.60;99.90
40053;DHT22;25758;48.200;16.338;2022-10-17T06:28:41;13.60;99.90
40053;DHT22;25758;48.200;16.338;2022-10-17T06:31:10;13.60;99.90
40053;DHT22;25758;48.200;16.338;2022-10-17T06:33:36;13.60;99.90
40053;DHT22;25758;48.200;16.338;2022-10-17T06:36:03;13.60;99.90
40053;DHT22;25758;48.200;16.338;2022-10-17T06:38:29;13.60;99.90
40053;DHT22;25758;48.200;16.338;2022-10-17T06:41:11;13.60;99.90
40053;DHT22;25758;48.200;16.338;2022-10-17T06:43:42;13.60;99.90
40053;DHT22;25758;48.200;16.338;2022-10-17T06:46:10;13.70;99.90
40053;DHT22;25758;48.200;16.338;2022-10-17T06:48:36;13.70;99.90
40053;DHT22;25758;48.200;16.338;2022-10-17T06:51:03;13.70;99.90
40053;DHT22;25758;48.200;16.338;2022-10-17T06:53:31;13.70;99.90
40053;DHT22;25758;48.200;16.338;2022-10-17T06:55:57;13.70;99.90
40053;DHT22;25758;48.200;16.338;2022-10-17T06:58:26;13.70;99.90
40053;DHT22;25758;48.200;16.338;2022-10-17T07:01:00;13.70;99.90
40053;DHT22;25758;48.200;16.338;2022-10-17T07:03:27;13.70;99.90
40053;DHT22;25758;48.200;16.338;2022-10-17T07:05:54;13.80;99.90
40053;DHT22;25758;48.200;16.338;2022-10-17T07:08:20;13.80;99.90
40053;DHT22;25758;48.200;16.338;2022-10-17T07:10:46;13.80;99.90
40053;DHT22;25758;48.200;16.338;2022-10-17T07:13:12;13.90;99.90
40053;DHT22;25758;48.200;16.338;2022-10-17T07:15:38;13.90;99.90
40053;DHT22;25758;48.200;16.338;2022-10-17T07:18:04;14.00;99.90
40053;DHT22;25758;48.200;16.338;2022-10-17T07:20:30;14.00;99.90
40053;DHT22;25758;48.200;16.338;2022-10-17T07:22:56;14.10;99.90
40053;DHT22;25758;48.200;16.338;2022-10-17T07:25:22;14.10;99.90
40053;DHT22;25758;48.200;16.338;2022-10-17T07:27:48;14.10;99.90
40053;DHT22;25758;48.200;16.338;2022-10-17T07:30:14;14.20;99.90
40053;DHT22;25758;48.200;16.338;2022-10-17T07:32:41;14.30;99.90
40053;DHT22;25758;48.200;16.338;2022-10-17T07:35:07;14.40;99.90
40053;DHT22;25758;48.200;16.338;2022-10-17T07:37:33;14.60;99.90
40053;DHT22;25758;48.200;16.338;2022-10-17T07:39:58;14.70;99.90
40053;DHT22;25758;48.200;16.338;2022-10-17T07:42:24;14.90;99.90
40053;DHT22;25758;48.200;16.338;2022-10-17T07:44:50;15.00;99.90
40053;DHT22;25758;48.200;16.338;2022-10-17T07:47:15;15.20;99.90
40053;DHT22;25758;48.200;16.338;2022-10-17T07:49:41;15.30;99.90
40053;DHT22;25758;48.200;16.338;2022-10-17T07:52:12;15.50;99.90
40053;DHT22;25758;48.200;16.338;2022-10-17T07:54:38;15.70;99.90
40053;DHT22;25758;48.200;16.338;2022-10-17T07:57:04;15.80;99.90
40053;DHT22;25758;48.200;16.338;2022-10-17T07:59:32;15.90;99.90
40053;DHT22;25758;48.200;16.338;2022-10-17T08:01:58;16.10;99.90
40053;DHT22;25758;48.200;16.338;2022-10-17T08:04:25;16.20;99.90
40053;DHT22;25758;48.200;16.338;2022-10-17T08:06:51;16.30;99.90
40053;DHT22;25758;48.200;16.338;2022-10-17T08:09:18;16.50;99.90
40053;DHT22;25758;48.200;16.338;2022-10-17T08:11:44;16.60;99.90
40053;DHT22;25758;48.200;16.338;2022-10-17T08:14:11;16.70;99.90
40053;DHT22;25758;48.200;16.338;2022-10-17T08:16:36;16.80;99.90
40053;DHT22;25758;48.200;16.338;2022-10-17T08:19:02;16.90;99.90
40053;DHT22;25758;48.200;16.338;2022-10-17T08:21:28;17.00;99.90
40053;DHT22;25758;48.200;16.338;2022-10-17T08:23:54;17.20;99.90
40053;DHT22;25758;48.200;16.338;2022-10-17T08:26:20;17.40;99.90
40053;DHT22;25758;48.200;16.338;2022-10-17T08:28:46;17.60;99.90
40053;DHT22;25758;48.200;16.338;2022-10-17T08:31:14;17.70;99.90
40053;DHT22;25758;48.200;16.338;2022-10-17T08:33:42;17.90;99.90
40053;DHT22;25758;48.200;16.338;2022-10-17T08:36:09;18.10;99.90
40053;DHT22;25758;48.200;16.338;2022-10-17T08:38:35;18.20;99.90
40053;DHT22;25758;48.200;16.338;2022-10-17T08:41:05;18.40;99.90
40053;DHT22;25758;48.200;16.338;2022-10-17T08:46:36;18.70;99.90
40053;DHT22;25758;48.200;16.338;2022-10-17T08:49:08;19.00;99.90
40053;DHT22;25758;48.200;16.338;2022-10-17T08:51:43;19.20;99.90
40053;DHT22;25758;48.200;16.338;2022-10-17T08:54:13;19.40;99.90
40053;DHT22;25758;48.200;16.338;2022-10-17T08:56:47;19.60;99.90
40053;DHT22;25758;48.200;16.338;2022-10-17T08:59:17;19.80;99.90
40053;DHT22;25758;48.200;16.338;2022-10-17T09:01:44;19.90;99.90
40053;DHT22;25758;48.200;16.338;2022-10-17T09:15:17;20.90;99.90
40053;DHT22;25758;48.200;16.338;2022-10-17T09:20:54;21.00;99.90
40053;DHT22;25758;48.200;16.338;2022-10-17T09:23:35;21.20;99.90
40053;DHT22;25758;48.200;16.338;2022-10-17T09:26:03;21.50;99.90
40053;DHT22;25758;48.200;16.338;2022-10-17T09:28:35;21.70;99.90
40053;DHT22;25758;48.200;16.338;2022-10-17T09:31:15;21.80;99.90
40053;DHT22;25758;48.200;16.338;2022-10-17T09:33:44;22.00;99.90
40053;DHT22;25758;48.200;16.338;2022-10-17T09:36:17;22.10;99.90
40053;DHT22;25758;48.200;16.338;2022-10-17T09:38:48;22.20;99.90
40053;DHT22;25758;48.200;16.338;2022-10-17T09:41:22;22.10;99.90
40053;DHT22;25758;48.200;16.338;2022-10-17T09:43:52;22.10;99.90
40053;DHT22;25758;48.200;16.338;2022-10-17T09:46:33;22.30;99.90
40053;DHT22;25758;48.200;16.338;2022-10-17T09:49:09;22.10;99.90
40053;DHT22;25758;48.200;16.338;2022-10-17T09:51:37;22.20;99.90
40053;DHT22;25758;48.200;16.338;2022-10-17T09:54:15;22.30;99.90
40053;DHT22;25758;48.200;16.338;2022-10-17T09:57:00;22.50;99.90
40053;DHT22;25758;48.200;16.338;2022-10-17T10:02:11;22.90;99.90
40053;DHT22;25758;48.200;16.338;2022-10-17T10:05:16;23.00;99.90
40053;DHT22;25758;48.200;16.338;2022-10-17T10:08:01;23.40;99.90
40053;DHT22;25758;48.200;16.338;2022-10-17T10:10:29;23.50;99.90
40053;DHT22;25758;48.200;16.338;2022-10-17T10:15:39;23.80;99.90
40053;DHT22;25758;48.200;16.338;2022-10-17T10:23:43;24.70;99.90
40053;DHT22;25758;48.200;16.338;2022-10-17T10:26:29;24.80;98.90
40053;DHT22;25758;48.200;16.338;2022-10-17T10:29:04;24.60;99.20
40053;DHT22;25758;48.200;16.338;2022-10-17T10:31:31;24.90;98.30
40053;DHT22;25758;48.200;16.338;2022-10-17T10:33:59;24.80;98.50
40053;DHT22;25758;48.200;16.338;2022-10-17T10:42:02;24.60;97.90
40053;DHT22;25758;48.200;16.338;2022-10-17T10:44:29;24.60;98.10
40053;DHT22;25758;48.200;16.338;2022-10-17T10:49:32;24.50;98.20
40053;DHT22;25758;48.200;16.338;2022-10-17T10:51:59;24.90;97.40
40053;DHT22;25758;48.200;16.338;2022-10-17T10:54:33;24.80;97.20
40053;DHT22;25758;48.200;16.338;2022-10-17T10:57:03;24.60;97.00
40053;DHT22;25758;48.200;16.338;2022-10-17T11:04:57;24.30;97.20
40053;DHT22;25758;48.200;16.338;2022-10-17T11:07:35;24.20;97.10
40053;DHT22;25758;48.200;16.338;2022-10-17T11:13:08;24.20;97.50
40053;DHT22;25758;48.200;16.338;2022-10-17T11:15:47;24.30;97.50
40053;DHT22;25758;48.200;16.338;2022-10-17T11:18:27;24.30;96.90
40053;DHT22;25758;48.200;16.338;2022-10-17T11:21:14;24.30;97.10
40053;DHT22;25758;48.200;16.338;2022-10-17T11:24:07;24.60;97.10
40053;DHT22;25758;48.200;16.338;2022-10-17T11:26:45;24.80;97.20
40053;DHT22;25758;48.200;16.338;2022-10-17T11:29:13;24.80;96.70
40053;DHT22;25758;48.200;16.338;2022-10-17T11:31:44;24.80;96.40
40053;DHT22;25758;48.200;16.338;2022-10-17T11:34:25;24.70;96.40
40053;DHT22;25758;48.200;16.338;2022-10-17T11:37:03;24.80;95.90
40053;DHT22;25758;48.200;16.338;2022-10-17T11:39:41;24.70;96.00
40053;DHT22;25758;48.200;16.338;2022-10-17T11:42:15;24.40;96.10
40053;DHT22;25758;48.200;16.338;2022-10-17T11:44:42;24.50;96.40
40053;DHT22;25758;48.200;16.338;2022-10-17T11:50:18;24.10;96.60
40053;DHT22;25758;48.200;16.338;2022-10-17T11:53:00;24.00;96.80
40053;DHT22;25758;48.200;16.338;2022-10-17T11:55:29;23.90;96.80
40053;DHT22;25758;48.200;16.338;2022-10-17T12:03:45;23.80;97.20
40053;DHT22;25758;48.200;16.338;2022-10-17T12:09:25;23.50;97.20
40053;DHT22;25758;48.200;16.338;2022-10-17T12:11:57;23.50;97.40
40053;DHT22;25758;48.200;16.338;2022-10-17T12:14:42;23.50;97.40
40053;DHT22;25758;48.200;16.338;2022-10-17T12:17:35;23.50;97.70
40053;DHT22;25758;48.200;16.338;2022-10-17T12:22:52;23.50;97.30
40053;DHT22;25758;48.200;16.338;2022-10-17T12:25:22;23.40;96.90
40053;DHT22;25758;48.200;16.338;2022-10-17T12:27:49;23.30;97.00
40053;DHT22;25758;48.200;16.338;2022-10-17T12:30:20;23.20;97.40
40053;DHT22;25758;48.200;16.338;2022-10-17T12:32:56;23.10;97.30
40053;DHT22;25758;48.200;16.338;2022-10-17T12:35:23;23.20;97.40
40053;DHT22;25758;48.200;16.338;2022-10-17T12:43:00;23.20;97.10
40053;DHT22;25758;48.200;16.338;2022-10-17T12:45:51;23.20;96.90
40053;DHT22;25758;48.200;16.338;2022-10-17T12:51:06;23.20;96.70
40053;DHT22;25758;48.200;16.338;2022-10-17T12:53:51;23.20;96.60
40053;DHT22;25758;48.200;16.338;2022-10-17T12:56:21;23.20;96.40
40053;DHT22;25758;48.200;16.338;2022-10-17T12:58:54;23.30;96.30
40053;DHT22;25758;48.200;16.338;2022-10-17T13:01:43;23.30;96.20
40053;DHT22;25758;48.200;16.338;2022-10-17T13:04:10;23.30;96.00
40053;DHT22;25758;48.200;16.338;2022-10-17T13:06:42;23.20;95.90
40053;DHT22;25758;48.200;16.338;2022-10-17T13:09:34;23.20;95.50
40053;DHT22;25758;48.200;16.338;2022-10-17T13:12:04;23.20;95.40
40053;DHT22;25758;48.200;16.338;2022-10-17T13:14:32;23.10;95.40
40053;DHT22;25758;48.200;16.338;2022-10-17T13:17:02;23.20;95.90
40053;DHT22;25758;48.200;16.338;2022-10-17T13:19:43;23.20;95.50
40053;DHT22;25758;48.200;16.338;2022-10-17T13:22:22;23.20;95.70
40053;DHT22;25758;48.200;16.338;2022-10-17T13:24:49;23.20;95.50
40053;DHT22;25758;48.200;16.338;2022-10-17T13:27:25;23.20;95.20
40053;DHT22;25758;48.200;16.338;2022-10-17T13:29:52;21.50;94.90
40053;DHT22;25758;48.200;16.338;2022-10-17T13:32:17;23.00;95.30
40053;DHT22;25758;48.200;16.338;2022-10-17T13:34:43;23.00;95.50
40053;DHT22;25758;48.200;16.338;2022-10-17T13:37:13;23.00;95.30
40053;DHT22;25758;48.200;16.338;2022-10-17T13:39:45;22.90;95.50
40053;DHT22;25758;48.200;16.338;2022-10-17T13:42:26;22.90;95.30
40053;DHT22;25758;48.200;16.338;2022-10-17T13:44:52;22.90;95.30
40053;DHT22;25758;48.200;16.338;2022-10-17T13:47:28;22.90;95.00
40053;DHT22;25758;48.200;16.338;2022-10-17T13:49:54;22.90;95.10
40053;DHT22;25758;48.200;16.338;2022-10-17T13:52:23;22.80;95.10
40053;DHT22;25758;48.200;16.338;2022-10-17T13:54:51;22.80;95.30
40053;DHT22;25758;48.200;16.338;2022-10-17T13:57:26;22.80;95.20
40053;DHT22;25758;48.200;16.338;2022-10-17T14:00:03;22.70;95.10
40053;DHT22;25758;48.200;16.338;2022-10-17T14:02:31;22.70;95.30
40053;DHT22;25758;48.200;16.338;2022-10-17T14:10:22;22.60;95.50
40053;DHT22;25758;48.200;16.338;2022-10-17T14:12:50;22.60;95.40
40053;DHT22;25758;48.200;16.338;2022-10-17T14:15:17;22.50;95.40
40053;DHT22;25758;48.200;16.338;2022-10-17T14:17:43;22.50;95.20
40053;DHT22;25758;48.200;16.338;2022-10-17T14:20:20;22.50;95.50
40053;DHT22;25758;48.200;16.338;2022-10-17T14:22:47;22.40;95.60
40053;DHT22;25758;48.200;16.338;2022-10-17T14:27:54;22.40;95.70
40053;DHT22;25758;48.200;16.338;2022-10-17T14:32:54;22.30;95.60
40053;DHT22;25758;48.200;16.338;2022-10-17T14:35:20;22.30;95.60
40053;DHT22;25758;48.200;16.338;2022-10-17T14:37:48;22.20;95.70
40053;DHT22;25758;48.200;16.338;2022-10-17T14:40:23;22.20;95.60
40053;DHT22;25758;48.200;16.338;2022-10-17T14:42:50;22.20;95.80
40053;DHT22;25758;48.200;16.338;2022-10-17T14:45:28;22.20;95.70
40053;DHT22;25758;48.200;16.338;2022-10-17T14:47:59;22.10;95.80
40053;DHT22;25758;48.200;16.338;2022-10-17T14:50:28;22.10;95.80
40053;DHT22;25758;48.200;16.338;2022-10-17T14:53:20;22.10;95.80
40053;DHT22;25758;48.200;16.338;2022-10-17T14:56:01;22.00;95.80
40053;DHT22;25758;48.200;16.338;2022-10-17T14:58:29;22.00;95.80
40053;DHT22;25758;48.200;16.338;2022-10-17T15:00:56;21.90;95.70
40053;DHT22;25758;48.200;16.338;2022-10-17T15:03:23;21.90;95.70
40053;DHT22;25758;48.200;16.338;2022-10-17T15:05:50;21.80;95.70
40053;DHT22;25758;48.200;16.338;2022-10-17T15:08:19;21.80;96.00
40053;DHT22;25758;48.200;16.338;2022-10-17T15:10:46;21.70;95.70
40053;DHT22;25758;48.200;16.338;2022-10-17T15:13:12;21.70;95.70
40053;DHT22;25758;48.200;16.338;2022-10-17T15:15:39;21.60;95.60
40053;DHT22;25758;48.200;16.338;2022-10-17T15:18:06;21.60;95.60
40053;DHT22;25758;48.200;16.338;2022-10-17T15:20:33;21.50;95.40
40053;DHT22;25758;48.200;16.338;2022-10-17T15:23:00;21.50;95.40
40053;DHT22;25758;48.200;16.338;2022-10-17T15:25:27;21.40;95.40
40053;DHT22;25758;48.200;16.338;2022-10-17T15:27:53;21.40;95.60
40053;DHT22;25758;48.200;16.338;2022-10-17T15:30:27;21.40;95.60
40053;DHT22;25758;48.200;16.338;2022-10-17T15:32:53;21.30;95.60
40053;DHT22;25758;48.200;16.338;2022-10-17T15:35:20;21.30;95.60
40053;DHT22;25758;48.200;16.338;2022-10-17T15:37:46;21.30;95.50
40053;DHT22;25758;48.200;16.338;2022-10-17T15:40:15;21.20;95.50
40053;DHT22;25758;48.200;16.338;2022-10-17T15:42:41;21.20;95.50
40053;DHT22;25758;48.200;16.338;2022-10-17T15:45:09;21.10;95.20
40053;DHT22;25758;48.200;16.338;2022-10-17T15:47:35;21.10;95.20
40053;DHT22;25758;48.200;16.338;2022-10-17T15:50:03;21.00;95.10
40053;DHT22;25758;48.200;16.338;2022-10-17T15:52:29;21.00;95.00
40053;DHT22;25758;48.200;16.338;2022-10-17T15:54:55;20.90;94.90
40053;DHT22;25758;48.200;16.338;2022-10-17T15:57:25;20.90;95.00
40053;DHT22;25758;48.200;16.338;2022-10-17T15:59:53;20.80;95.00
40053;DHT22;25758;48.200;16.338;2022-10-17T16:02:21;20.80;95.20
40053;DHT22;25758;48.200;16.338;2022-10-17T16:04:48;20.80;95.40
40053;DHT22;25758;48.200;16.338;2022-10-17T16:07:14;20.60;95.00
40053;DHT22;25758;48.200;16.338;2022-10-17T16:09:40;20.60;95.10
40053;DHT22;25758;48.200;16.338;2022-10-17T16:12:12;20.60;95.00
40053;DHT22;25758;48.200;16.338;2022-10-17T16:14:39;20.50;95.10
40053;DHT22;25758;48.200;16.338;2022-10-17T16:17:05;20.50;94.90
40053;DHT22;25758;48.200;16.338;2022-10-17T16:19:30;20.40;95.10
40053;DHT22;25758;48.200;16.338;2022-10-17T16:21:57;20.40;94.90
40053;DHT22;25758;48.200;16.338;2022-10-17T16:24:23;20.30;95.10
40053;DHT22;25758;48.200;16.338;2022-10-17T16:26:49;20.30;94.80
40053;DHT22;25758;48.200;16.338;2022-10-17T16:29:15;20.20;94.90
40053;DHT22;25758;48.200;16.338;2022-10-17T16:31:43;20.20;94.70
40053;DHT22;25758;48.200;16.338;2022-10-17T16:34:12;20.10;94.80
40053;DHT22;25758;48.200;16.338;2022-10-17T16:36:38;20.10;95.10
40053;DHT22;25758;48.200;16.338;2022-10-17T16:39:05;20.10;94.80
40053;DHT22;25758;48.200;16.338;2022-10-17T16:41:33;20.00;95.10
40053;DHT22;25758;48.200;16.338;2022-10-17T16:44:02;20.00;94.70
40053;DHT22;25758;48.200;16.338;2022-10-17T16:46:29;19.90;94.80
40053;DHT22;25758;48.200;16.338;2022-10-17T16:48:55;19.90;94.80
40053;DHT22;25758;48.200;16.338;2022-10-17T16:51:22;19.80;94.80
40053;DHT22;25758;48.200;16.338;2022-10-17T16:53:50;19.80;94.90
40053;DHT22;25758;48.200;16.338;2022-10-17T16:56:19;19.70;94.90
40053;DHT22;25758;48.200;16.338;2022-10-17T16:58:45;19.70;94.80
40053;DHT22;25758;48.200;16.338;2022-10-17T17:01:14;19.60;94.80
40053;DHT22;25758;48.200;16.338;2022-10-17T17:03:41;19.60;94.80
40053;DHT22;25758;48.200;16.338;2022-10-17T17:06:10;19.60;94.90
40053;DHT22;25758;48.200;16.338;2022-10-17T17:08:36;19.50;95.00
40053;DHT22;25758;48.200;16.338;2022-10-17T17:11:05;19.50;94.90
40053;DHT22;25758;48.200;16.338;2022-10-17T17:13:31;19.40;95.00
40053;DHT22;25758;48.200;16.338;2022-10-17T17:16:08;19.40;95.10
40053;DHT22;25758;48.200;16.338;2022-10-17T17:18:35;19.40;95.20
40053;DHT22;25758;48.200;16.338;2022-10-17T17:21:02;19.30;95.20
40053;DHT22;25758;48.200;16.338;2022-10-17T17:23:29;19.30;95.20
40053;DHT22;25758;48.200;16.338;2022-10-17T17:26:04;19.30;95.20
40053;DHT22;25758;48.200;16.338;2022-10-17T17:28:31;19.20;95.20
40053;DHT22;25758;48.200;16.338;2022-10-17T17:30:57;19.20;95.50